Delta Virtual Airport Information Service

Seattle Tacoma International Airport

ICAO: KSEA Country: United States
Latitude: 47.4482 Longitude: -122.311
Latest Arrival : SKW3354 (C) (CYYC-KSEA) Latest Departure : DAC2541 (KSEA-KMSY)


WX CaptureLIVE
Data provided by noaa.gov | Fetched at 11:46:11

METAR : KSEA 281637Z 21013KT 4SM -RA BR OVC015 14/13 A2998

TAF : KSEA 281434Z 2815/2918 20010KT 6SM BR SCT005 OVC015 TEMPO 2815/2816 6SM BR FM281700 18012KT 5SM -RA BR SCT008 OVC015 FM281900 20015G22KT 5SM -RA BR OVC015 FM290300 29010KT 5SM RA BR SCT005 OVC015 FM291500 32005KT P6SM -RA OVC015


Runway Data for KSEA
Data provided by openaviationdata.com

Runway ID Mag Var Hdg Length Elevation Surface ILS Freq ILS Id ILS Slope
16L 19 161° 11894 ft 362 ft Asphalt 110.3 ISNQ 3
16R 19 161° 9421 ft 362 ft Concrete 111.7 ISZI 3
34L 19 341° 9421 ft 362 ft Concrete 111.7 ITUC 3
34R 19 341° 11894 ft 362 ft Asphalt 110.3 ISEA 2

Seattle Tacoma International Airport, United States
Use only for reference purposes



Not for navigational purposes.